Time;durP1;ratioP1;P1;durP2;ratioP2;P2;SDS_P1;SDS_P2;PMS_P1;PMS_P2;Temp;Humidity;BMP_temperature;BMP_pressure;BME280_temperature;BME280_humidity;BME280_pressure;Samples;Min_cycle;Max_cycle;Signal;HPM_P1;HPM_P2
2022/10/17 00:00:57;;;;;;;;;;;15.00;63.60;;;10.85;100.00;96144.44;5027079;28;19946;-51
2022/10/17 00:03:23;;;;;;;;;;;15.00;63.70;;;10.86;100.00;96150.56;5044127;28;20282;-48
2022/10/17 00:05:49;;;;;;;;;;;15.00;63.70;;;10.82;100.00;96139.63;5036609;28;19923;-50
2022/10/17 00:08:18;;;;;;;;;;;14.90;63.70;;;10.78;100.00;96157.19;5016603;28;20317;-52
2022/10/17 00:10:53;;;;;;;;;;;15.00;63.70;;;10.78;100.00;96149.19;5018122;28;19916;-50
2022/10/17 00:13:19;;;;;;;;;;;15.00;63.70;;;10.81;100.00;96146.00;5029765;28;20292;-55
2022/10/17 00:15:45;;;;;;;;;;;15.00;63.80;;;10.81;100.00;96150.50;5061148;28;19983;-51
2022/10/17 00:18:14;;;;;;;;;;;14.90;63.70;;;10.75;100.00;96149.69;5045954;28;19919;-56
2022/10/17 00:20:47;;;;;;;;;;;14.90;63.70;;;10.71;100.00;96147.75;5025702;28;19912;-56
2022/10/17 00:23:15;;;;;;;;;;;14.90;63.70;;;10.68;100.00;96154.38;5015990;28;19912;-56
2022/10/17 00:25:41;;;;;;;;;;;14.90;63.70;;;10.66;100.00;96156.50;5028077;28;19908;-56
2022/10/17 00:28:12;;;;;;;;;;;14.90;63.70;;;10.61;100.00;96151.94;5019057;28;20332;-54
2022/10/17 00:30:38;;;;;;;;;;;14.80;63.70;;;10.59;100.00;96155.88;5027518;28;19955;-55
2022/10/17 00:33:05;;;;;;;;;;;14.80;63.70;;;10.53;100.00;96155.06;5034415;28;19916;-56
2022/10/17 00:35:31;;;;;;;;;;;14.80;63.70;;;10.50;100.00;96155.56;5032658;28;19948;-56
2022/10/17 00:37:57;;;;;;;;;;;14.80;63.70;;;10.45;100.00;96154.69;5027796;28;19958;-51
2022/10/17 00:40:23;;;;;;;;;;;14.70;63.70;;;10.39;100.00;96154.63;5028825;28;19909;-48
2022/10/17 00:42:55;;;;;;;;;;;14.70;63.80;;;10.38;100.00;96158.34;5029794;28;19916;-54
2022/10/17 00:45:25;;;;;;;;;;;14.70;63.90;;;10.34;100.00;96148.41;5030894;28;19908;-54
2022/10/17 00:48:08;;;;;;;;;;;14.60;63.90;;;10.32;100.00;96150.53;5047759;28;19909;-54
2022/10/17 00:50:37;;;;;;;;;;;14.60;64.00;;;10.30;100.00;96149.97;5011471;28;19924;-55
2022/10/17 00:53:07;;;;;;;;;;;14.50;64.00;;;10.31;100.00;96160.41;5033761;28;20366;-51
2022/10/17 00:55:51;;;;;;;;;;;14.60;64.10;;;10.33;100.00;96149.47;5030535;28;19912;-56
2022/10/17 00:58:18;;;;;;;;;;;14.50;64.20;;;10.29;100.00;96157.16;5037314;28;19957;-51
2022/10/17 01:00:46;;;;;;;;;;;14.50;64.20;;;10.26;100.00;96154.16;5047987;28;19920;-56
2022/10/17 01:03:15;;;;;;;;;;;14.50;64.30;;;10.24;100.00;96156.25;5034389;28;19926;-54
2022/10/17 01:05:42;;;;;;;;;;;14.50;64.20;;;10.20;100.00;96163.94;5039825;28;19908;-50
2022/10/17 01:08:11;;;;;;;;;;;14.50;64.20;;;10.17;100.00;96159.13;5033417;28;19909;-51
2022/10/17 01:11:16;;;;;;;;;;;14.40;64.20;;;10.12;100.00;96146.56;5048844;28;19909;-50
2022/10/17 01:14:10;;;;;;;;;;;14.40;64.20;;;10.08;100.00;96153.41;5036570;28;19978;-53
2022/10/17 01:17:32;;;;;;;;;;;14.30;64.30;;;10.07;100.00;96153.69;5037959;28;19912;-48
2022/10/17 01:20:28;;;;;;;;;;;14.30;64.40;;;10.02;100.00;96148.28;5033595;28;20424;-51
2022/10/17 01:23:13;;;;;;;;;;;14.30;64.50;;;9.99;100.00;96148.75;5044339;28;19940;-50
2022/10/17 01:25:50;;;;;;;;;;;14.20;64.50;;;9.96;100.00;96150.88;5033103;28;19915;-50
2022/10/17 01:28:41;;;;;;;;;;;14.20;64.60;;;9.92;100.00;96152.41;5041731;28;20368;-50
2022/10/17 01:31:16;;;;;;;;;;;14.20;64.60;;;9.90;100.00;96145.72;5022519;28;19931;-46
2022/10/17 01:34:07;;;;;;;;;;;14.20;64.80;;;9.91;100.00;96156.13;5030133;28;19958;-50
2022/10/17 01:37:13;;;;;;;;;;;14.10;64.60;;;9.87;100.00;96144.38;5019742;28;19921;-51
2022/10/17 01:40:16;;;;;;;;;;;14.10;64.60;;;9.87;100.00;96143.56;5025141;28;19909;-55
2022/10/17 01:43:28;;;;;;;;;;;14.10;64.70;;;9.84;100.00;96136.88;5024616;28;19912;-51
2022/10/17 01:46:25;;;;;;;;;;;14.10;64.80;;;9.83;100.00;96142.44;5012672;28;20004;-51
2022/10/17 01:48:54;;;;;;;;;;;14.10;64.90;;;9.87;100.00;96138.22;5047101;28;20394;-50
2022/10/17 01:51:46;;;;;;;;;;;14.10;64.90;;;9.87;100.00;96138.22;5016583;28;19921;-53
2022/10/17 01:54:43;;;;;;;;;;;14.10;65.00;;;9.86;100.00;96141.94;5028271;28;20354;-50
2022/10/17 01:57:22;;;;;;;;;;;14.10;65.70;;;9.81;100.00;96142.69;5026426;28;19967;-49
2022/10/17 01:59:52;;;;;;;;;;;14.10;65.00;;;9.81;100.00;96145.34;5030412;28;19919;-50
2022/10/17 02:02:22;;;;;;;;;;;14.10;65.00;;;9.82;100.00;96131.00;5026440;28;19944;-52
2022/10/17 02:04:56;;;;;;;;;;;14.00;65.00;;;9.83;100.00;96139.78;5029944;28;20631;-51
2022/10/17 02:07:22;;;;;;;;;;;14.00;65.00;;;9.81;100.00;96136.53;5038565;28;19913;-50
2022/10/17 02:09:51;;;;;;;;;;;14.00;65.00;;;9.82;100.00;96146.16;5044704;28;21470;-53
2022/10/17 02:12:42;;;;;;;;;;;14.00;65.00;;;9.73;100.00;96154.56;5026504;28;19939;-49
2022/10/17 02:15:39;;;;;;;;;;;14.00;65.00;;;9.68;100.00;96146.53;5025135;28;19909;-50
2022/10/17 02:18:25;;;;;;;;;;;14.00;65.00;;;9.65;100.00;96144.34;5028685;28;19916;-54
2022/10/17 02:21:11;;;;;;;;;;;14.00;65.10;;;9.64;100.00;96141.91;5048499;28;20267;-52
2022/10/17 02:24:23;;;;;;;;;;;13.90;65.00;;;9.59;100.00;96137.34;5028255;28;19909;-51
2022/10/17 02:27:29;;;;;;;;;;;13.90;65.10;;;9.57;100.00;96138.63;5034625;28;19959;-51
2022/10/17 02:30:22;;;;;;;;;;;13.80;65.10;;;9.51;100.00;96127.09;5026668;28;20632;-53
2022/10/17 02:33:07;;;;;;;;;;;13.80;65.20;;;9.45;100.00;96125.44;5047161;28;19948;-49
2022/10/17 02:35:42;;;;;;;;;;;13.80;65.20;;;9.43;100.00;96135.50;5019804;28;19962;-51
2022/10/17 02:38:12;;;;;;;;;;;13.80;65.20;;;9.42;100.00;96123.25;5027811;28;19915;-51
2022/10/17 02:40:41;;;;;;;;;;;13.80;65.30;;;9.43;100.00;96135.50;5027211;28;19935;-50
2022/10/17 02:43:07;;;;;;;;;;;13.70;65.30;;;9.39;100.00;96137.03;5017596;28;19959;-51
2022/10/17 02:45:37;;;;;;;;;;;13.70;65.80;;;9.36;100.00;96130.34;5030557;28;19909;-50
2022/10/17 02:48:13;;;;;;;;;;;13.70;65.30;;;9.34;100.00;96137.78;5035977;28;19909;-50
2022/10/17 02:51:20;;;;;;;;;;;13.70;65.30;;;9.30;100.00;96141.16;5030333;23;19913;-52
2022/10/17 02:54:21;;;;;;;;;;;13.60;65.20;;;9.29;100.00;96139.53;5038460;28;19927;-52
2022/10/17 02:57:05;;;;;;;;;;;13.60;65.20;;;9.28;100.00;96141.41;5006969;28;20004;-52
2022/10/17 02:59:35;;;;;;;;;;;13.60;65.40;;;9.30;100.00;96141.16;5018429;28;20003;-53
2022/10/17 03:02:04;;;;;;;;;;;13.60;65.40;;;9.30;100.00;96143.81;5025038;28;19956;-51
2022/10/17 03:04:31;;;;;;;;;;;13.60;65.50;;;9.30;100.00;96149.91;5037199;28;19916;-53
2022/10/17 03:06:56;;;;;;;;;;;13.60;65.50;;;9.27;100.00;96142.44;5017662;28;19913;-52
2022/10/17 03:09:25;;;;;;;;;;;13.60;65.40;;;9.22;100.00;96137.84;5026699;28;20271;-54
2022/10/17 03:11:54;;;;;;;;;;;13.60;65.40;;;9.20;100.00;96142.59;5026045;28;19915;-55
2022/10/17 03:14:20;;;;;;;;;;;13.50;65.30;;;9.19;100.00;96145.50;5045687;28;19915;-50
2022/10/17 03:16:45;;;;;;;;;;;13.50;65.40;;;9.17;100.00;96150.25;5051521;28;19913;-51
2022/10/17 03:19:11;;;;;;;;;;;13.50;65.40;;;9.19;100.00;96150.81;5032048;28;19947;-53
2022/10/17 03:21:37;;;;;;;;;;;13.50;65.40;;;9.19;100.00;96150.81;5030738;28;19908;-52
2022/10/17 03:24:13;;;;;;;;;;;13.50;65.50;;;9.17;100.00;96148.38;5025599;28;19909;-52
2022/10/17 03:26:41;;;;;;;;;;;13.50;65.50;;;9.13;100.00;96154.44;4999978;28;20003;-47
2022/10/17 03:29:10;;;;;;;;;;;13.50;65.60;;;9.10;100.00;96150.41;5033370;28;19908;-57
2022/10/17 03:31:36;;;;;;;;;;;13.40;65.50;;;9.07;100.00;96155.41;5046973;28;19909;-53
2022/10/17 03:34:02;;;;;;;;;;;13.40;65.50;;;9.04;100.00;96167.31;5051303;28;20389;-50
2022/10/17 03:36:30;;;;;;;;;;;13.40;65.40;;;9.01;100.00;96173.91;5050882;28;19920;-50
2022/10/17 03:38:56;;;;;;;;;;;13.30;65.50;;;8.95;100.00;96163.44;5043818;28;20401;-53
2022/10/17 03:41:22;;;;;;;;;;;13.30;65.50;;;8.93;100.00;96174.31;5032398;28;19908;-54
2022/10/17 03:43:48;;;;;;;;;;;13.30;65.50;;;8.90;100.00;96169.47;5022123;28;19928;-52
2022/10/17 03:46:13;;;;;;;;;;;13.30;65.50;;;8.91;100.00;96175.59;5040945;28;19947;-51
2022/10/17 03:48:39;;;;;;;;;;;13.30;65.50;;;8.91;100.00;96181.72;5032962;28;19908;-51
2022/10/17 03:51:08;;;;;;;;;;;13.20;65.40;;;8.86;100.00;96184.28;5032973;28;19959;-51
2022/10/17 03:53:40;;;;;;;;;;;13.20;65.50;;;8.84;100.00;96188.22;5031196;28;19916;-51
2022/10/17 03:56:24;;;;;;;;;;;13.20;65.50;;;8.83;100.00;96189.25;5025234;28;20201;-49
2022/10/17 03:58:54;;;;;;;;;;;13.20;65.50;;;8.77;100.00;96194.50;5005141;28;19909;-51
2022/10/17 04:01:21;;;;;;;;;;;13.20;65.60;;;8.75;100.00;96190.47;5010041;28;19909;-52
2022/10/17 04:03:58;;;;;;;;;;;13.10;65.60;;;8.73;100.00;96189.88;5035875;28;19908;-51
2022/10/17 04:06:23;;;;;;;;;;;13.10;65.60;;;8.70;100.00;96190.34;5014402;28;19912;-53
2022/10/17 04:08:54;;;;;;;;;;;13.10;65.70;;;8.67;100.00;96193.50;5034693;28;20315;-52
2022/10/17 04:11:20;;;;;;;;;;;13.00;65.60;;;8.64;100.00;96194.75;5011482;28;19915;-50
2022/10/17 04:13:51;;;;;;;;;;;13.00;65.70;;;8.61;100.00;96200.53;5011390;28;19962;-57
2022/10/17 04:16:21;;;;;;;;;;;13.00;65.70;;;8.59;100.00;96202.66;5049181;28;19912;-58
2022/10/17 04:18:54;;;;;;;;;;;13.00;65.80;;;8.58;100.00;96203.66;5050579;28;20301;-58
2022/10/17 04:21:23;;;;;;;;;;;13.00;65.80;;;8.56;100.00;96208.44;5041069;28;19965;-54
2022/10/17 04:23:56;;;;;;;;;;;12.90;65.80;;;8.56;100.00;96206.59;5051648;28;19915;-51
2022/10/17 04:26:24;;;;;;;;;;;12.90;65.80;;;8.52;100.00;96208.09;5035935;28;20019;-51
2022/10/17 04:28:52;;;;;;;;;;;12.90;65.90;;;8.54;100.00;96218.47;5031110;28;20313;-55
2022/10/17 04:31:19;;;;;;;;;;;12.90;65.90;;;8.53;100.00;96217.66;5018167;28;19915;-56
2022/10/17 04:33:50;;;;;;;;;;;12.90;65.90;;;8.55;100.00;96220.06;5036793;28;19913;-56
2022/10/17 04:36:21;;;;;;;;;;;12.90;66.00;;;8.55;100.00;96228.03;5017772;28;20421;-51
2022/10/17 04:38:50;;;;;;;;;;;12.90;65.90;;;8.52;100.00;96224.03;5030591;28;20401;-52
2022/10/17 04:41:18;;;;;;;;;;;12.90;65.90;;;8.46;100.00;96226.78;5046642;28;20455;-54
2022/10/17 04:43:46;;;;;;;;;;;12.90;65.90;;;8.39;100.00;96231.44;5025823;28;19927;-55
2022/10/17 04:46:16;;;;;;;;;;;12.90;65.80;;;8.35;100.00;96228.41;5021003;28;19967;-54
2022/10/17 04:48:54;;;;;;;;;;;12.80;65.70;;;8.34;100.00;96224.97;5032524;28;19908;-55
2022/10/17 04:51:20;;;;;;;;;;;12.80;65.70;;;8.32;100.00;96229.69;5015485;28;19923;-52
2022/10/17 04:53:45;;;;;;;;;;;12.70;65.70;;;8.26;100.00;96227.97;4998707;28;20283;-56
2022/10/17 04:56:23;;;;;;;;;;;12.80;65.80;;;8.23;100.00;96227.63;5013744;28;19963;-56
2022/10/17 04:58:59;;;;;;;;;;;12.70;65.80;;;8.21;100.00;96225.22;5014456;28;19909;-52
2022/10/17 05:01:30;;;;;;;;;;;12.70;66.00;;;8.23;100.00;96230.28;5016827;28;19908;-50
2022/10/17 05:03:58;;;;;;;;;;;12.60;65.90;;;8.19;100.00;96229.16;5034161;28;19909;-56
2022/10/17 05:06:29;;;;;;;;;;;12.60;66.00;;;8.19;100.00;96239.75;5036569;28;19912;-56
2022/10/17 05:08:56;;;;;;;;;;;12.60;66.00;;;8.15;100.00;96236.78;5027105;28;19916;-54
2022/10/17 05:11:26;;;;;;;;;;;12.60;66.00;;;8.09;100.00;96238.50;5035060;28;19909;-54
2022/10/17 05:13:58;;;;;;;;;;;12.50;66.00;;;8.07;100.00;96237.91;5028375;28;19958;-53
2022/10/17 05:16:28;;;;;;;;;;;12.50;66.10;;;8.06;100.00;96238.97;5024301;28;19956;-51
2022/10/17 05:18:56;;;;;;;;;;;12.50;66.10;;;8.03;100.00;96236.78;5036515;28;19913;-55
2022/10/17 05:21:27;;;;;;;;;;;12.50;66.10;;;8.02;100.00;96239.66;5015177;28;19916;-50
2022/10/17 05:23:53;;;;;;;;;;;12.50;66.20;;;8.00;100.00;96236.44;5021529;28;19909;-49
2022/10/17 05:26:24;;;;;;;;;;;12.40;66.20;;;8.02;100.00;96242.31;5009119;28;19975;-52
2022/10/17 05:28:51;;;;;;;;;;;12.40;66.30;;;8.02;100.00;96240.47;5015313;28;19951;-54
2022/10/17 05:31:17;;;;;;;;;;;12.40;66.30;;;8.00;100.00;96244.41;5021339;28;20010;-52
2022/10/17 05:33:52;;;;;;;;;;;12.40;67.10;;;8.05;100.00;96240.03;5007835;28;19924;-53
2022/10/17 05:36:17;;;;;;;;;;;12.40;66.40;;;8.03;100.00;96242.09;5021423;28;19967;-49
2022/10/17 05:38:51;;;;;;;;;;;12.50;66.40;;;8.00;100.00;96239.09;5012773;28;19920;-53
2022/10/17 05:41:18;;;;;;;;;;;12.40;66.40;;;8.02;100.00;96237.00;5015081;28;19919;-54
2022/10/17 05:43:44;;;;;;;;;;;12.50;66.50;;;8.08;100.00;96238.72;5012459;28;19913;-54
2022/10/17 05:46:11;;;;;;;;;;;12.50;66.50;;;8.08;100.00;96236.06;5009092;28;19959;-54
2022/10/17 05:48:45;;;;;;;;;;;12.50;66.50;;;8.11;100.00;96239.06;5012914;28;19951;-52
2022/10/17 05:51:14;;;;;;;;;;;12.50;66.60;;;8.19;100.00;96253.84;5012945;28;19920;-57
2022/10/17 05:53:41;;;;;;;;;;;12.50;66.60;;;8.24;100.00;96258.44;5034516;28;20011;-54
2022/10/17 05:56:14;;;;;;;;;;;12.50;66.60;;;8.24;100.00;96258.44;5037226;28;19920;-50
2022/10/17 05:58:44;;;;;;;;;;;12.60;66.70;;;8.22;100.00;96264.00;5043696;28;19908;-50
2022/10/17 06:01:13;;;;;;;;;;;12.60;66.60;;;8.22;100.00;96271.94;5034638;28;19919;-54
2022/10/17 06:03:39;;;;;;;;;;;12.60;66.40;;;8.21;100.00;96270.34;5020610;28;19915;-54
2022/10/17 06:06:09;;;;;;;;;;;12.60;66.40;;;8.17;100.00;96271.84;5028531;28;19908;-50
2022/10/17 06:08:39;;;;;;;;;;;12.60;66.40;;;8.20;100.00;96281.97;5012628;28;20437;-55
2022/10/17 06:11:05;;;;;;;;;;;12.70;66.50;;;8.22;100.00;96276.47;5034514;28;20397;-54
2022/10/17 06:13:31;;;;;;;;;;;12.70;66.50;;;8.26;100.00;96269.63;5019056;28;20373;-52
2022/10/17 06:15:57;;;;;;;;;;;12.70;66.40;;;8.25;100.00;96279.44;5014673;28;20466;-50
2022/10/17 06:18:26;;;;;;;;;;;12.70;66.40;;;8.25;100.00;96282.09;5028674;28;19983;-50
2022/10/17 06:20:52;;;;;;;;;;;12.80;66.40;;;8.23;100.00;96286.03;5024272;28;19913;-53
2022/10/17 06:23:21;;;;;;;;;;;12.80;66.40;;;8.29;100.00;96293.06;5010571;28;19920;-51
2022/10/17 06:25:46;;;;;;;;;;;12.90;66.40;;;8.35;100.00;96297.44;5013426;28;19916;-57
2022/10/17 06:28:12;;;;;;;;;;;12.90;66.40;;;8.44;100.00;96298.72;5033718;28;19913;-52
2022/10/17 06:30:50;;;;;;;;;;;12.90;66.50;;;8.53;100.00;96309.81;5051758;28;20345;-50
2022/10/17 06:33:16;;;;;;;;;;;13.00;66.60;;;8.63;100.00;96304.69;5020653;28;19912;-52
2022/10/17 06:35:43;;;;;;;;;;;13.00;66.60;;;8.67;100.00;96313.00;5024568;28;19908;-52
2022/10/17 06:38:09;;;;;;;;;;;13.10;66.60;;;8.75;100.00;96316.09;5025134;28;19913;-52
2022/10/17 06:40:37;;;;;;;;;;;13.20;66.60;;;8.79;100.00;96309.28;5024035;28;19916;-52
2022/10/17 06:43:06;;;;;;;;;;;13.30;66.70;;;8.88;100.00;96311.56;5051244;28;19908;-51
2022/10/17 06:45:32;;;;;;;;;;;13.30;66.60;;;8.95;100.00;96321.00;5018597;28;19908;-51
2022/10/17 06:48:25;;;;;;;;;;;13.40;66.60;;;9.08;100.00;96327.91;5034117;28;19939;-55
2022/10/17 06:50:50;;;;;;;;;;;13.60;66.70;;;9.17;100.00;96334.44;5019564;28;19912;-53
2022/10/17 06:53:16;;;;;;;;;;;13.70;66.70;;;9.23;100.00;96336.16;5028623;28;20263;-56
2022/10/17 06:55:42;;;;;;;;;;;13.70;66.60;;;9.30;100.00;96337.88;5045079;28;19916;-55
2022/10/17 06:58:08;;;;;;;;;;;13.80;66.60;;;9.35;100.00;96349.41;5029218;28;19912;-56
2022/10/17 07:00:45;;;;;;;;;;;13.90;66.50;;;9.39;100.00;96355.06;5033700;28;19917;-56
2022/10/17 07:03:11;;;;;;;;;;;14.00;66.40;;;9.45;100.00;96352.25;4985863;28;19931;-57
2022/10/17 07:05:37;;;;;;;;;;;14.10;66.30;;;9.64;100.00;96352.84;5031451;28;19912;-53
2022/10/17 07:08:04;;;;;;;;;;;14.20;66.60;;;9.84;100.00;96352.41;5008469;28;19915;-57
2022/10/17 07:10:30;;;;;;;;;;;14.30;66.60;;;9.98;100.00;96350.25;5038924;28;20007;-54
2022/10/17 07:12:55;;;;;;;;;;;14.50;66.60;;;10.21;100.00;96362.56;5030567;28;20003;-55
2022/10/17 07:15:24;;;;;;;;;;;14.70;66.70;;;10.45;100.00;96371.22;5027841;28;20381;-55
2022/10/17 07:17:53;;;;;;;;;;;14.90;66.60;;;10.65;100.00;96374.19;5036098;28;19957;-51
2022/10/17 07:20:22;;;;;;;;;;;15.20;66.60;;;10.87;100.00;96376.06;5032519;28;20027;-53
2022/10/17 07:22:47;;;;;;;;;;;15.50;66.60;;;11.05;100.00;96373.09;4994418;28;19919;-57
2022/10/17 07:25:16;;;;;;;;;;;15.80;66.40;;;11.32;100.00;96375.81;5030834;28;19912;-55
2022/10/17 07:27:54;;;;;;;;;;;16.10;66.20;;;11.67;100.00;96382.59;5029219;28;19909;-57
2022/10/17 07:30:24;;;;;;;;;;;16.50;66.00;;;12.04;100.00;96384.56;5013765;28;19909;-57
2022/10/17 07:32:53;;;;;;;;;;;17.00;65.80;;;12.38;100.00;96386.97;5028714;28;20368;-57
2022/10/17 07:35:20;;;;;;;;;;;17.30;65.40;;;12.67;100.00;96387.44;5033022;28;19954;-56
2022/10/17 07:37:46;;;;;;;;;;;17.70;65.10;;;12.97;99.07;96394.81;5023999;28;19953;-53
2022/10/17 07:42:57;;;;;;;;;;;18.40;64.30;;;13.38;93.22;96387.81;5050006;28;20302;-51
2022/10/17 07:45:26;;;;;;;;;;;18.70;64.00;;;13.58;92.27;96387.06;5017544;28;19912;-49
2022/10/17 07:47:58;;;;;;;;;;;18.90;63.60;;;13.77;93.47;96394.63;5049313;28;19908;-49
2022/10/17 07:50:28;;;;;;;;;;;19.10;63.20;;;13.94;90.87;96395.16;5022388;28;19908;-53
2022/10/17 07:52:53;;;;;;;;;;;19.40;62.90;;;14.25;88.05;96392.53;5009899;28;19967;-50
2022/10/17 07:55:19;;;;;;;;;;;19.70;62.50;;;14.43;86.08;96397.34;5031321;28;19932;-49
2022/10/17 07:57:50;;;;;;;;;;;20.00;62.10;;;14.67;84.76;96397.63;5036625;28;19918;-51
2022/10/17 08:00:22;;;;;;;;;;;20.30;61.70;;;14.99;83.90;96404.53;5022633;28;19959;-54
2022/10/17 08:02:53;;;;;;;;;;;20.60;61.40;;;15.35;83.32;96409.78;5034063;28;19909;-50
2022/10/17 08:05:24;;;;;;;;;;;20.90;61.10;;;15.77;82.07;96411.25;5032092;28;19908;-49
2022/10/17 08:07:49;;;;;;;;;;;21.30;60.90;;;16.16;77.72;96414.72;5023115;28;19909;-49
2022/10/17 08:10:16;;;;;;;;;;;21.70;60.60;;;16.37;75.56;96426.16;5026642;28;19912;-51
2022/10/17 08:12:45;;;;;;;;;;;22.10;60.00;;;16.57;74.84;96422.47;5045430;28;19915;-53
2022/10/17 08:15:16;;;;;;;;;;;22.40;59.50;;;16.73;74.08;96422.34;5039768;28;19915;-55
2022/10/17 08:17:45;;;;;;;;;;;22.80;59.10;;;16.86;73.90;96427.91;5038547;28;19912;-53
2022/10/17 08:20:14;;;;;;;;;;;23.10;58.60;;;17.11;71.09;96418.00;5030387;28;19999;-54
2022/10/17 08:22:52;;;;;;;;;;;23.40;58.30;;;17.53;69.19;96419.09;5029686;28;19908;-50
2022/10/17 08:25:17;;;;;;;;;;;23.70;58.10;;;17.90;68.19;96425.69;5025575;28;19912;-48
2022/10/17 08:27:43;;;;;;;;;;;23.90;58.40;;;18.09;67.92;96420.28;5034021;28;20281;-50
2022/10/17 08:30:10;;;;;;;;;;;24.20;57.70;;;18.32;66.04;96416.69;5028509;28;19969;-48
2022/10/17 08:32:38;;;;;;;;;;;24.40;57.30;;;18.62;65.68;96431.59;5020211;28;20385;-55
2022/10/17 08:35:08;;;;;;;;;;;24.60;57.00;;;18.82;63.51;96419.66;5049783;28;19916;-53
2022/10/17 08:37:40;;;;;;;;;;;24.90;56.70;;;19.06;61.38;96424.13;5044947;28;20473;-52
2022/10/17 08:40:29;;;;;;;;;;;25.20;56.40;;;19.32;61.07;96421.72;5030060;28;19940;-54
2022/10/17 08:43:04;;;;;;;;;;;25.50;55.90;;;19.53;56.25;96425.63;5039570;28;19959;-52
2022/10/17 08:46:01;;;;;;;;;;;25.80;55.60;;;19.64;54.30;96437.06;5014112;28;20329;-54
2022/10/17 08:48:33;;;;;;;;;;;25.80;54.90;;;19.76;53.58;96433.84;5012400;28;20467;-45
2022/10/17 08:51:27;;;;;;;;;;;26.00;54.60;;;19.89;52.98;96438.44;5020491;23;19955;-57
2022/10/17 08:54:15;;;;;;;;;;;26.10;54.20;;;20.28;52.96;96435.13;5013834;28;19921;-53
2022/10/17 08:56:54;;;;;;;;;;;26.40;53.70;;;20.50;49.31;96436.25;5002924;28;19913;-57
2022/10/17 08:59:28;;;;;;;;;;;26.80;54.00;;;20.69;48.92;96427.97;5022496;28;19958;-56
2022/10/17 09:02:35;;;;;;;;;;;27.10;53.00;;;21.09;48.88;96433.44;5005721;28;20334;-53
2022/10/17 09:05:19;;;;;;;;;;;27.50;52.50;;;21.41;49.36;96440.50;5020468;28;20406;-56
2022/10/17 09:08:27;;;;;;;;;;;28.00;52.10;;;21.78;46.67;96433.75;5023350;28;20302;-56
2022/10/17 09:11:20;;;;;;;;;;;28.40;51.50;;;21.93;47.00;96444.13;5008891;28;19909;-54
2022/10/17 09:14:16;;;;;;;;;;;28.80;51.10;;;22.15;46.45;96440.47;5018720;28;20271;-56
2022/10/17 09:17:11;;;;;;;;;;;29.00;50.40;;;22.38;46.14;96441.19;5024977;28;19920;-54
2022/10/17 09:20:10;;;;;;;;;;;29.30;50.20;;;22.73;46.04;96438.44;4986857;28;19924;-57
2022/10/17 09:23:01;;;;;;;;;;;29.40;49.80;;;22.81;46.44;96436.81;5020405;28;19971;-57
2022/10/17 09:25:39;;;;;;;;;;;29.60;49.40;;;22.95;45.62;96440.19;5003024;28;19909;-54
2022/10/17 09:28:40;;;;;;;;;;;29.90;49.00;;;23.14;46.26;96441.72;4994654;28;19913;-55
2022/10/17 09:31:22;;;;;;;;;;;30.00;48.60;;;23.08;45.98;96438.38;4980702;28;20438;-56
2022/10/17 09:33:56;;;;;;;;;;;30.00;48.30;;;23.25;45.59;96443.78;4991777;28;19909;-57
2022/10/17 09:36:30;;;;;;;;;;;30.00;48.10;;;23.35;46.66;96444.53;5007270;28;19956;-53
2022/10/17 09:39:00;;;;;;;;;;;30.10;47.90;;;23.24;45.85;96438.66;5004265;28;20474;-56
2022/10/17 09:41:40;;;;;;;;;;;30.10;47.70;;;23.12;45.86;96449.41;5005634;28;19920;-56
2022/10/17 09:44:20;;;;;;;;;;;30.00;47.50;;;22.74;46.21;96442.72;4996052;28;19913;-54
2022/10/17 09:47:33;;;;;;;;;;;29.90;47.20;;;22.83;47.57;96445.44;5027441;28;19970;-52
2022/10/17 09:50:27;;;;;;;;;;;29.80;47.10;;;22.98;46.48;96446.88;4989357;28;19916;-58
2022/10/17 09:52:54;;;;;;;;;;;29.80;47.00;;;23.31;45.99;96455.25;4990386;28;19957;-54
2022/10/17 09:55:40;;;;;;;;;;;30.00;46.80;;;23.35;45.94;96450.78;5007437;28;20180;-51
2022/10/17 09:58:08;;;;;;;;;;;30.20;46.70;;;23.43;46.08;96452.66;5022233;28;20357;-56
2022/10/17 10:00:43;;;;;;;;;;;30.40;46.50;;;23.58;45.52;96451.31;4998544;28;19916;-56
2022/10/17 10:03:23;;;;;;;;;;;30.60;46.40;;;23.67;45.78;96456.72;4969384;28;19996;-48
2022/10/17 10:06:16;;;;;;;;;;;30.60;46.20;;;23.78;45.96;96456.06;4998485;28;19915;-57
2022/10/17 10:08:54;;;;;;;;;;;30.80;45.90;;;23.64;46.27;96462.81;5010284;28;19966;-56
2022/10/17 10:11:54;;;;;;;;;;;30.70;45.80;;;23.53;46.82;96462.34;5010933;28;20045;-54
2022/10/17 10:14:38;;;;;;;;;;;30.60;45.70;;;23.59;47.80;96458.34;4997327;28;20309;-53
2022/10/17 10:17:32;;;;;;;;;;;30.60;45.60;;;23.68;47.48;96461.00;4990329;28;20458;-57
2022/10/17 10:19:58;;;;;;;;;;;30.70;45.40;;;23.90;47.39;96465.41;5020820;28;20000;-57
2022/10/17 10:22:33;;;;;;;;;;;30.80;45.30;;;24.12;47.06;96461.59;5027657;28;19913;-55
2022/10/17 10:25:25;;;;;;;;;;;31.00;45.20;;;23.88;46.36;96468.47;5027120;28;19909;-57
2022/10/17 10:27:54;;;;;;;;;;;30.90;45.00;;;23.98;48.17;96451.75;5014784;28;19912;-57
2022/10/17 10:30:30;;;;;;;;;;;31.00;45.00;;;24.14;47.24;96456.63;4983904;28;19909;-56
2022/10/17 10:33:00;;;;;;;;;;;31.20;44.80;;;24.45;45.60;96467.94;5021790;28;19909;-52
2022/10/17 10:35:35;;;;;;;;;;;31.50;44.60;;;24.52;45.76;96469.34;5009724;28;19946;-53
2022/10/17 10:38:12;;;;;;;;;;;31.70;44.30;;;24.85;46.23;96467.47;5003759;28;19920;-55
2022/10/17 10:40:56;;;;;;;;;;;32.10;44.10;;;25.10;45.46;96468.34;5016128;28;19935;-56
2022/10/17 10:44:02;;;;;;;;;;;32.60;43.90;;;25.43;43.36;96469.44;5005201;28;19916;-53
2022/10/17 10:46:28;;;;;;;;;;;32.90;43.60;;;25.79;43.55;96465.91;4960979;28;20274;-52
2022/10/17 10:49:31;;;;;;;;;;;33.20;43.30;;;25.98;42.08;96470.84;5029277;28;20331;-50
2022/10/17 10:52:04;;;;;;;;;;;33.50;43.00;;;26.02;41.03;96461.63;5016470;28;19991;-52
2022/10/17 10:54:53;;;;;;;;;;;33.80;42.60;;;26.02;41.04;96460.84;4991029;28;19909;-53
2022/10/17 10:57:25;;;;;;;;;;;33.90;42.40;;;26.10;41.31;96462.63;4988838;28;20359;-54
2022/10/17 11:00:01;;;;;;;;;;;34.00;42.20;;;26.28;40.98;96452.25;4999402;28;20000;-54
2022/10/17 11:02:39;;;;;;;;;;;34.10;41.90;;;26.35;39.47;96451.66;5012515;28;19909;-58
2022/10/17 11:05:17;;;;;;;;;;;34.40;41.70;;;26.49;39.09;96454.84;4994688;28;19916;-54
2022/10/17 11:07:57;;;;;;;;;;;34.50;41.40;;;26.60;38.80;96447.75;4994661;28;20371;-53
2022/10/17 11:10:58;;;;;;;;;;;34.90;41.20;;;26.66;38.97;96443.63;5010357;28;20011;-50
2022/10/17 11:13:52;;;;;;;;;;;35.10;40.90;;;26.65;38.76;96444.00;4993856;28;19962;-52
2022/10/17 11:16:45;;;;;;;;;;;35.30;40.50;;;26.98;38.92;96441.78;4990719;28;19913;-53
2022/10/17 11:19:20;;;;;;;;;;;35.50;40.40;;;27.25;39.68;96436.63;5011795;28;20023;-55
2022/10/17 11:22:20;;;;;;;;;;;35.70;40.10;;;27.57;38.58;96433.91;5010685;28;19963;-51
2022/10/17 11:25:18;;;;;;;;;;;35.80;39.80;;;27.62;37.90;96430.91;5011312;28;19913;-56
2022/10/17 11:27:44;;;;;;;;;;;36.00;39.60;;;27.94;37.98;96431.69;4993104;28;19917;-52
2022/10/17 11:30:15;;;;;;;;;;;36.30;39.50;;;27.78;37.55;96434.44;5024301;28;19920;-54
2022/10/17 11:32:47;;;;;;;;;;;36.40;39.20;;;27.95;37.25;96418.78;5005443;28;19920;-51
2022/10/17 11:35:49;;;;;;;;;;;36.70;39.10;;;27.80;37.46;96426.69;5010462;28;19913;-52
2022/10/17 11:38:35;;;;;;;;;;;36.80;38.20;;;27.91;37.11;96421.44;5007878;28;20375;-51
2022/10/17 11:41:03;;;;;;;;;;;36.90;38.00;;;27.71;37.47;96428.00;4993945;28;19913;-51
2022/10/17 11:44:06;;;;;;;;;;;36.90;37.80;;;27.36;38.71;96432.25;5008147;28;19909;-54
2022/10/17 11:46:42;;;;;;;;;;;36.80;37.60;;;26.84;38.35;96427.72;5019872;28;19916;-52
2022/10/17 11:49:24;;;;;;;;;;;36.70;37.60;;;27.02;39.36;96430.94;5007309;28;19910;-51
2022/10/17 11:51:58;;;;;;;;;;;36.60;37.50;;;26.80;39.36;96426.84;5012348;28;19917;-57
2022/10/17 11:54:40;;;;;;;;;;;36.50;37.50;;;26.95;38.95;96423.34;4993743;28;19967;-57
2022/10/17 11:57:46;;;;;;;;;;;36.40;37.30;;;27.40;38.48;96424.13;5005541;28;19924;-57